sensor_id;sensor_type;location;lat;lon;timestamp;pressure;altitude;pressure_sealevel;temperature;humidity
12949;BME280;6539;49.476;8.484;2023-05-01T00:00:09;100508.19;;;16.51;45.19
12949;BME280;6539;49.476;8.484;2023-05-01T00:02:35;100505.84;;;16.50;45.32
12949;BME280;6539;49.476;8.484;2023-05-01T00:05:02;100505.06;;;16.49;45.05
12949;BME280;6539;49.476;8.484;2023-05-01T00:07:29;100504.53;;;16.54;45.17
12949;BME280;6539;49.476;8.484;2023-05-01T00:09:57;100498.66;;;16.52;45.23
12949;BME280;6539;49.476;8.484;2023-05-01T00:12:26;100492.78;;;16.50;45.21
12949;BME280;6539;49.476;8.484;2023-05-01T00:14:53;100490.88;;;16.47;45.48
12949;BME280;6539;49.476;8.484;2023-05-01T00:17:20;100490.88;;;16.47;45.52
12949;BME280;6539;49.476;8.484;2023-05-01T00:19:53;100484.63;;;16.43;45.62
12949;BME280;6539;49.476;8.484;2023-05-01T00:22:19;100481.22;;;16.39;45.69
12949;BME280;6539;49.476;8.484;2023-05-01T00:24:45;100487.31;;;16.34;45.90
12949;BME280;6539;49.476;8.484;2023-05-01T00:27:15;100477.44;;;16.33;45.75
12949;BME280;6539;49.476;8.484;2023-05-01T00:29:49;100478.66;;;16.32;45.89
12949;BME280;6539;49.476;8.484;2023-05-01T00:32:15;100475.91;;;16.32;45.79
12949;BME280;6539;49.476;8.484;2023-05-01T00:34:49;100471.22;;;16.29;45.88
12949;BME280;6539;49.476;8.484;2023-05-01T00:37:18;100469.25;;;16.30;46.00
12949;BME280;6539;49.476;8.484;2023-05-01T00:39:44;100470.91;;;16.27;45.97
12949;BME280;6539;49.476;8.484;2023-05-01T00:42:11;100462.59;;;16.27;45.94
12949;BME280;6539;49.476;8.484;2023-05-01T00:44:37;100459.81;;;16.27;45.85
12949;BME280;6539;49.476;8.484;2023-05-01T00:47:08;100457.50;;;16.26;46.00
12949;BME280;6539;49.476;8.484;2023-05-01T00:49:34;100457.16;;;16.24;46.00
12949;BME280;6539;49.476;8.484;2023-05-01T00:52:02;100456.38;;;16.23;46.26
12949;BME280;6539;49.476;8.484;2023-05-01T00:54:28;100459.25;;;16.20;46.41
12949;BME280;6539;49.476;8.484;2023-05-01T00:56:56;100458.16;;;16.17;46.23
12949;BME280;6539;49.476;8.484;2023-05-01T00:59:25;100453.94;;;16.13;46.29
12949;BME280;6539;49.476;8.484;2023-05-01T01:01:51;100442.94;;;16.09;46.17
12949;BME280;6539;49.476;8.484;2023-05-01T01:04:21;100450.06;;;16.10;46.24
12949;BME280;6539;49.476;8.484;2023-05-01T01:10:21;100430.75;;;16.07;46.26
12949;BME280;6539;49.476;8.484;2023-05-01T01:15:49;100437.66;;;16.02;46.11
12949;BME280;6539;49.476;8.484;2023-05-01T01:18:38;100429.88;;;15.97;46.15
12949;BME280;6539;49.476;8.484;2023-05-01T01:21:26;100434.53;;;16.00;46.21
12949;BME280;6539;49.476;8.484;2023-05-01T01:30:46;100413.00;;;15.91;46.39
12949;BME280;6539;49.476;8.484;2023-05-01T01:33:59;100418.22;;;15.89;46.32
12949;BME280;6539;49.476;8.484;2023-05-01T01:36:47;100420.44;;;15.94;46.44
12949;BME280;6539;49.476;8.484;2023-05-01T01:42:25;100421.44;;;15.88;46.53
12949;BME280;6539;49.476;8.484;2023-05-01T01:44:58;100416.81;;;15.85;46.68
12949;BME280;6539;49.476;8.484;2023-05-01T01:47:30;100424.06;;;15.79;46.88
12949;BME280;6539;49.476;8.484;2023-05-01T01:50:04;100417.34;;;15.80;46.93
12949;BME280;6539;49.476;8.484;2023-05-01T01:52:34;100413.00;;;15.79;46.81
12949;BME280;6539;49.476;8.484;2023-05-01T01:55:11;100424.06;;;15.79;46.94
12949;BME280;6539;49.476;8.484;2023-05-01T01:57:40;100427.41;;;15.74;46.98
12949;BME280;6539;49.476;8.484;2023-05-01T02:00:11;100430.69;;;15.69;46.80
12949;BME280;6539;49.476;8.484;2023-05-01T02:02:42;100432.69;;;15.68;46.74
12949;BME280;6539;49.476;8.484;2023-05-01T02:05:15;100424.31;;;15.72;46.88
12949;BME280;6539;49.476;8.484;2023-05-01T02:07:49;100425.16;;;15.69;46.80
12949;BME280;6539;49.476;8.484;2023-05-01T02:10:19;100431.47;;;15.69;46.68
12949;BME280;6539;49.476;8.484;2023-05-01T02:12:52;100415.22;;;15.71;46.74
12949;BME280;6539;49.476;8.484;2023-05-01T02:15:20;100423.75;;;15.77;46.68
12949;BME280;6539;49.476;8.484;2023-05-01T02:17:50;100420.56;;;15.78;46.74
12949;BME280;6539;49.476;8.484;2023-05-01T02:20:17;100426.84;;;15.79;46.54
12949;BME280;6539;49.476;8.484;2023-05-01T02:22:51;100423.66;;;15.80;46.86
12949;BME280;6539;49.476;8.484;2023-05-01T02:25:18;100420.09;;;15.80;46.80
12949;BME280;6539;49.476;8.484;2023-05-01T02:28:12;100424.97;;;15.76;47.01
12949;BME280;6539;49.476;8.484;2023-05-01T02:30:38;100422.53;;;15.78;47.00
12949;BME280;6539;49.476;8.484;2023-05-01T02:33:07;100425.84;;;15.73;47.04
12949;BME280;6539;49.476;8.484;2023-05-01T02:35:41;100420.31;;;15.73;47.09
12949;BME280;6539;49.476;8.484;2023-05-01T02:38:10;100412.31;;;15.75;47.37
12949;BME280;6539;49.476;8.484;2023-05-01T02:40:46;100412.66;;;15.77;47.37
12949;BME280;6539;49.476;8.484;2023-05-01T02:43:21;100411.47;;;15.78;47.07
12949;BME280;6539;49.476;8.484;2023-05-01T02:45:50;100404.28;;;15.80;47.26
12949;BME280;6539;49.476;8.484;2023-05-01T02:48:26;100402.38;;;15.77;47.08
12949;BME280;6539;49.476;8.484;2023-05-01T02:50:54;100401.72;;;15.73;47.33
12949;BME280;6539;49.476;8.484;2023-05-01T02:53:22;100395.84;;;15.71;47.32
12949;BME280;6539;49.476;8.484;2023-05-01T02:55:51;100390.63;;;15.73;47.47
12949;BME280;6539;49.476;8.484;2023-05-01T02:58:17;100395.06;;;15.71;47.30
12949;BME280;6539;49.476;8.484;2023-05-01T03:00:48;100395.59;;;15.66;47.52
12949;BME280;6539;49.476;8.484;2023-05-01T03:03:14;100388.50;;;15.65;47.54
12949;BME280;6539;49.476;8.484;2023-05-01T03:05:43;100396.03;;;15.64;47.51
12949;BME280;6539;49.476;8.484;2023-05-01T03:08:15;100388.19;;;15.63;47.51
12949;BME280;6539;49.476;8.484;2023-05-01T03:10:41;100386.53;;;15.65;47.57
12949;BME280;6539;49.476;8.484;2023-05-01T03:13:08;100394.50;;;15.63;47.34
12949;BME280;6539;49.476;8.484;2023-05-01T03:15:35;100391.94;;;15.56;47.60
12949;BME280;6539;49.476;8.484;2023-05-01T03:18:03;100377.31;;;15.56;47.62
12949;BME280;6539;49.476;8.484;2023-05-01T03:20:29;100374.88;;;15.58;47.60
12949;BME280;6539;49.476;8.484;2023-05-01T03:22:58;100379.53;;;15.61;47.60
12949;BME280;6539;49.476;8.484;2023-05-01T03:25:24;100374.53;;;15.56;47.66
12949;BME280;6539;49.476;8.484;2023-05-01T03:27:50;100378.09;;;15.56;47.67
12949;BME280;6539;49.476;8.484;2023-05-01T03:30:18;100375.31;;;15.56;47.72
12949;BME280;6539;49.476;8.484;2023-05-01T03:32:44;100381.38;;;15.51;47.86
12949;BME280;6539;49.476;8.484;2023-05-01T03:35:10;100379.75;;;15.54;47.71
12949;BME280;6539;49.476;8.484;2023-05-01T03:37:37;100375.41;;;15.53;47.68
12949;BME280;6539;49.476;8.484;2023-05-01T03:40:04;100375.84;;;15.51;47.78
12949;BME280;6539;49.476;8.484;2023-05-01T03:42:30;100380.59;;;15.51;47.88
12949;BME280;6539;49.476;8.484;2023-05-01T03:44:55;100379.06;;;15.50;47.91
12949;BME280;6539;49.476;8.484;2023-05-01T03:47:21;100373.66;;;15.46;47.88
12949;BME280;6539;49.476;8.484;2023-05-01T03:49:49;100379.19;;;15.46;48.13
12949;BME280;6539;49.476;8.484;2023-05-01T03:52:17;100369.31;;;15.45;47.94
12949;BME280;6539;49.476;8.484;2023-05-01T03:54:43;100372.91;;;15.42;48.14
12949;BME280;6539;49.476;8.484;2023-05-01T03:57:09;100367.84;;;15.41;48.07
12949;BME280;6539;49.476;8.484;2023-05-01T03:59:35;100376.06;;;15.44;48.03
12949;BME280;6539;49.476;8.484;2023-05-01T04:02:02;100365.78;;;15.45;47.93
12949;BME280;6539;49.476;8.484;2023-05-01T04:04:29;100368.16;;;15.43;47.83
12949;BME280;6539;49.476;8.484;2023-05-01T04:07:02;100365.41;;;15.43;47.84
12949;BME280;6539;49.476;8.484;2023-05-01T04:09:28;100365.50;;;15.39;48.00
12949;BME280;6539;49.476;8.484;2023-05-01T04:11:59;100365.50;;;15.39;47.84
12949;BME280;6539;49.476;8.484;2023-05-01T04:14:27;100367.94;;;15.37;47.61
12949;BME280;6539;49.476;8.484;2023-05-01T04:16:53;100369.25;;;15.33;47.63
12949;BME280;6539;49.476;8.484;2023-05-01T04:19:19;100362.84;;;15.36;47.57
12949;BME280;6539;49.476;8.484;2023-05-01T04:21:45;100372.38;;;15.35;47.92
12949;BME280;6539;49.476;8.484;2023-05-01T04:24:14;100364.50;;;15.33;47.91
12949;BME280;6539;49.476;8.484;2023-05-01T04:26:43;100369.94;;;15.37;47.76
12949;BME280;6539;49.476;8.484;2023-05-01T04:29:08;100371.13;;;15.36;47.75
12949;BME280;6539;49.476;8.484;2023-05-01T04:31:36;100365.94;;;15.38;47.78
12949;BME280;6539;49.476;8.484;2023-05-01T04:34:02;100373.03;;;15.39;48.07
12949;BME280;6539;49.476;8.484;2023-05-01T04:36:28;100363.09;;;15.41;47.99
12949;BME280;6539;49.476;8.484;2023-05-01T04:38:54;100369.41;;;15.42;48.03
12949;BME280;6539;49.476;8.484;2023-05-01T04:41:20;100366.63;;;15.42;48.07
12949;BME280;6539;49.476;8.484;2023-05-01T04:43:51;100370.94;;;15.43;48.27
12949;BME280;6539;49.476;8.484;2023-05-01T04:46:17;100370.94;;;15.43;48.39
12949;BME280;6539;49.476;8.484;2023-05-01T04:48:43;100365.78;;;15.45;48.43
12949;BME280;6539;49.476;8.484;2023-05-01T04:51:08;100366.44;;;15.49;48.54
12949;BME280;6539;49.476;8.484;2023-05-01T04:53:39;100359.38;;;15.48;48.87
12949;BME280;6539;49.476;8.484;2023-05-01T04:56:09;100363.66;;;15.49;49.00
12949;BME280;6539;49.476;8.484;2023-05-01T04:58:35;100371.44;;;15.54;48.99
12949;BME280;6539;49.476;8.484;2023-05-01T05:01:03;100368.44;;;15.48;49.43
12949;BME280;6539;49.476;8.484;2023-05-01T05:03:28;100368.53;;;15.45;49.49
12949;BME280;6539;49.476;8.484;2023-05-01T05:05:56;100376.47;;;15.43;49.80
12949;BME280;6539;49.476;8.484;2023-05-01T05:08:25;100376.75;;;15.48;49.67
12949;BME280;6539;49.476;8.484;2023-05-01T05:10:58;100370.44;;;15.48;49.90
12949;BME280;6539;49.476;8.484;2023-05-01T05:13:27;100370.44;;;15.48;50.02
12949;BME280;6539;49.476;8.484;2023-05-01T05:15:53;100373.53;;;15.50;50.13
12949;BME280;6539;49.476;8.484;2023-05-01T05:18:19;100367.22;;;15.49;50.08
12949;BME280;6539;49.476;8.484;2023-05-01T05:20:50;100382.72;;;15.47;50.41
12949;BME280;6539;49.476;8.484;2023-05-01T05:23:19;100373.66;;;15.46;50.64
12949;BME280;6539;49.476;8.484;2023-05-01T05:25:46;100371.56;;;15.50;51.00
12949;BME280;6539;49.476;8.484;2023-05-01T05:28:11;100378.63;;;15.51;50.98
12949;BME280;6539;49.476;8.484;2023-05-01T05:30:37;100376.97;;;15.54;51.17
12949;BME280;6539;49.476;8.484;2023-05-01T05:33:03;100373.91;;;15.64;55.05
12949;BME280;6539;49.476;8.484;2023-05-01T05:35:31;100375.81;;;15.80;52.65
12949;BME280;6539;49.476;8.484;2023-05-01T05:38:00;100375.38;;;15.94;54.58
12949;BME280;6539;49.476;8.484;2023-05-01T05:40:25;100372.19;;;15.95;51.89
12949;BME280;6539;49.476;8.484;2023-05-01T05:42:51;100374.50;;;15.97;51.05
12949;BME280;6539;49.476;8.484;2023-05-01T05:45:18;100363.97;;;16.17;54.51
12949;BME280;6539;49.476;8.484;2023-05-01T05:47:43;100370.41;;;16.14;51.82
12949;BME280;6539;49.476;8.484;2023-05-01T05:50:09;100368.41;;;16.15;50.51
12949;BME280;6539;49.476;8.484;2023-05-01T05:52:38;100367.97;;;16.16;50.06
12949;BME280;6539;49.476;8.484;2023-05-01T05:55:08;100372.38;;;16.14;49.69
12949;BME280;6539;49.476;8.484;2023-05-01T05:57:34;100368.50;;;16.11;49.75
12949;BME280;6539;49.476;8.484;2023-05-01T06:00:06;100369.41;;;16.08;49.65
12949;BME280;6539;49.476;8.484;2023-05-01T06:02:34;100369.75;;;16.10;49.61
12949;BME280;6539;49.476;8.484;2023-05-01T06:05:00;100363.88;;;16.08;49.86
12949;BME280;6539;49.476;8.484;2023-05-01T06:07:28;100370.84;;;16.13;50.92
12949;BME280;6539;49.476;8.484;2023-05-01T06:09:56;100362.88;;;16.15;50.21
12949;BME280;6539;49.476;8.484;2023-05-01T06:12:29;100364.31;;;16.19;50.10
12949;BME280;6539;49.476;8.484;2023-05-01T06:15:03;100363.72;;;16.24;50.13
12949;BME280;6539;49.476;8.484;2023-05-01T06:17:29;100362.53;;;16.25;50.08
12949;BME280;6539;49.476;8.484;2023-05-01T06:19:58;100359.22;;;16.30;50.05
12949;BME280;6539;49.476;8.484;2023-05-01T06:22:28;100360.63;;;16.35;50.15
12949;BME280;6539;49.476;8.484;2023-05-01T06:24:54;100366.06;;;16.38;49.94
12949;BME280;6539;49.476;8.484;2023-05-01T06:27:24;100367.72;;;16.36;49.96
12949;BME280;6539;49.476;8.484;2023-05-01T06:29:52;100363.63;;;16.40;50.01
12949;BME280;6539;49.476;8.484;2023-05-01T06:32:18;100366.84;;;16.39;50.20
12949;BME280;6539;49.476;8.484;2023-05-01T06:34:44;100365.16;;;16.41;50.00
12949;BME280;6539;49.476;8.484;2023-05-01T06:37:12;100366.72;;;16.42;50.34
12949;BME280;6539;49.476;8.484;2023-05-01T06:39:40;100363.41;;;16.47;50.15
12949;BME280;6539;49.476;8.484;2023-05-01T06:42:06;100362.63;;;16.47;50.00
12949;BME280;6539;49.476;8.484;2023-05-01T06:44:32;100359.50;;;16.45;50.24
12949;BME280;6539;49.476;8.484;2023-05-01T06:47:00;100361.72;;;16.50;50.16
12949;BME280;6539;49.476;8.484;2023-05-01T06:49:28;100360.28;;;16.45;50.04
12949;BME280;6539;49.476;8.484;2023-05-01T06:51:56;100365.72;;;16.49;50.17
12949;BME280;6539;49.476;8.484;2023-05-01T06:54:24;100362.28;;;16.45;50.47
12949;BME280;6539;49.476;8.484;2023-05-01T06:56:54;100366.59;;;16.46;50.58
12949;BME280;6539;49.476;8.484;2023-05-01T06:59:22;100370.16;;;16.46;50.36
12949;BME280;6539;49.476;8.484;2023-05-01T07:01:52;100364.94;;;16.48;50.60
12949;BME280;6539;49.476;8.484;2023-05-01T07:04:18;100366.59;;;16.58;51.17
12949;BME280;6539;49.476;8.484;2023-05-01T07:06:45;100363.81;;;16.58;50.36
12949;BME280;6539;49.476;8.484;2023-05-01T07:09:11;100366.50;;;16.62;49.85
12949;BME280;6539;49.476;8.484;2023-05-01T07:11:38;100366.69;;;16.67;49.50
12949;BME280;6539;49.476;8.484;2023-05-01T07:14:04;100367.34;;;16.71;49.15
12949;BME280;6539;49.476;8.484;2023-05-01T07:16:29;100371.53;;;16.76;48.99
12949;BME280;6539;49.476;8.484;2023-05-01T07:18:55;100369.09;;;16.78;48.85
12949;BME280;6539;49.476;8.484;2023-05-01T07:21:24;100368.53;;;16.83;48.94
12949;BME280;6539;49.476;8.484;2023-05-01T07:23:52;100366.97;;;16.95;49.21
12949;BME280;6539;49.476;8.484;2023-05-01T07:26:17;100378.09;;;17.04;49.05
12949;BME280;6539;49.476;8.484;2023-05-01T07:28:44;100371.47;;;17.01;49.59
12949;BME280;6539;49.476;8.484;2023-05-01T07:31:14;100379.44;;;17.12;49.98
12949;BME280;6539;49.476;8.484;2023-05-01T07:33:46;100383.41;;;17.11;49.87
12949;BME280;6539;49.476;8.484;2023-05-01T07:36:15;100373.16;;;16.99;49.98
12949;BME280;6539;49.476;8.484;2023-05-01T07:38:43;100376.94;;;16.92;50.27
12949;BME280;6539;49.476;8.484;2023-05-01T07:41:09;100379.59;;;16.96;50.58
12949;BME280;6539;49.476;8.484;2023-05-01T07:43:35;100374.50;;;16.94;50.40
12949;BME280;6539;49.476;8.484;2023-05-01T07:46:01;100376.72;;;16.99;50.24
12949;BME280;6539;49.476;8.484;2023-05-01T07:48:27;100378.25;;;17.00;49.77
12949;BME280;6539;49.476;8.484;2023-05-01T07:50:55;100364.44;;;17.09;49.45
12949;BME280;6539;49.476;8.484;2023-05-01T07:53:24;100363.22;;;17.10;48.93
12949;BME280;6539;49.476;8.484;2023-05-01T07:55:49;100371.75;;;17.16;48.40
12949;BME280;6539;49.476;8.484;2023-05-01T07:58:20;100365.56;;;17.12;48.18
12949;BME280;6539;49.476;8.484;2023-05-01T08:00:46;100362.66;;;17.15;49.60
12949;BME280;6539;49.476;8.484;2023-05-01T08:03:12;100369.22;;;17.09;48.50
12949;BME280;6539;49.476;8.484;2023-05-01T08:05:41;100362.50;;;17.19;48.09
12949;BME280;6539;49.476;8.484;2023-05-01T08:08:09;100369.28;;;17.18;47.87
12949;BME280;6539;49.476;8.484;2023-05-01T08:10:35;100361.72;;;16.97;47.88
12949;BME280;6539;49.476;8.484;2023-05-01T08:13:01;100372.94;;;16.93;47.07
12949;BME280;6539;49.476;8.484;2023-05-01T08:15:31;100370.06;;;16.97;46.93
12949;BME280;6539;49.476;8.484;2023-05-01T08:17:57;100370.56;;;17.04;46.75
12949;BME280;6539;49.476;8.484;2023-05-01T08:20:26;100370.97;;;17.15;47.19
12949;BME280;6539;49.476;8.484;2023-05-01T08:22:51;100374.28;;;17.23;46.86
12949;BME280;6539;49.476;8.484;2023-05-01T08:25:17;100374.53;;;17.16;47.41
12949;BME280;6539;49.476;8.484;2023-05-01T08:27:48;100369.28;;;17.18;47.66
12949;BME280;6539;49.476;8.484;2023-05-01T08:30:13;100372.78;;;17.31;48.54
12949;BME280;6539;49.476;8.484;2023-05-01T08:32:44;100380.53;;;17.36;47.92
12949;BME280;6539;49.476;8.484;2023-05-01T08:35:10;100378.91;;;17.26;47.67
12949;BME280;6539;49.476;8.484;2023-05-01T08:37:36;100383.81;;;17.22;47.52
12949;BME280;6539;49.476;8.484;2023-05-01T08:40:04;100377.88;;;17.32;48.04
12949;BME280;6539;49.476;8.484;2023-05-01T08:42:36;100379.63;;;17.39;47.71
12949;BME280;6539;49.476;8.484;2023-05-01T08:45:07;100378.13;;;17.47;46.65
12949;BME280;6539;49.476;8.484;2023-05-01T08:47:40;100372.03;;;17.52;46.52
12949;BME280;6539;49.476;8.484;2023-05-01T08:50:12;100372.16;;;17.70;46.01
12949;BME280;6539;49.476;8.484;2023-05-01T08:52:46;100377.47;;;17.86;45.41
12949;BME280;6539;49.476;8.484;2023-05-01T08:55:14;100370.09;;;17.92;45.47
12949;BME280;6539;49.476;8.484;2023-05-01T08:57:47;100364.91;;;18.03;44.35
12949;BME280;6539;49.476;8.484;2023-05-01T09:00:20;100370.88;;;18.33;43.94
12949;BME280;6539;49.476;8.484;2023-05-01T09:02:48;100368.34;;;18.56;41.96
12949;BME280;6539;49.476;8.484;2023-05-01T09:05:21;100373.78;;;18.78;41.17
12949;BME280;6539;49.476;8.484;2023-05-01T09:07:49;100364.50;;;18.72;39.90
12949;BME280;6539;49.476;8.484;2023-05-01T09:10:17;100359.41;;;18.79;40.08
12949;BME280;6539;49.476;8.484;2023-05-01T09:12:48;100374.44;;;18.91;39.51
12949;BME280;6539;49.476;8.484;2023-05-01T09:15:18;100372.41;;;18.91;39.55
12949;BME280;6539;49.476;8.484;2023-05-01T09:17:44;100374.13;;;18.89;39.70
12949;BME280;6539;49.476;8.484;2023-05-01T09:20:10;100366.69;;;18.95;40.02
12949;BME280;6539;49.476;8.484;2023-05-01T09:22:36;100363.91;;;19.04;39.91
12949;BME280;6539;49.476;8.484;2023-05-01T09:25:03;100360.63;;;19.33;40.32
12949;BME280;6539;49.476;8.484;2023-05-01T09:27:33;100368.19;;;19.68;39.09
12949;BME280;6539;49.476;8.484;2023-05-01T09:30:04;100359.09;;;20.10;37.60
12949;BME280;6539;49.476;8.484;2023-05-01T09:32:31;100353.28;;;20.31;37.33
12949;BME280;6539;49.476;8.484;2023-05-01T09:35:14;100354.81;;;20.80;35.25
12949;BME280;6539;49.476;8.484;2023-05-01T09:37:51;100358.41;;;20.95;36.52
12949;BME280;6539;49.476;8.484;2023-05-01T09:40:17;100366.34;;;21.35;34.96
12949;BME280;6539;49.476;8.484;2023-05-01T09:42:53;100356.31;;;21.43;33.88
12949;BME280;6539;49.476;8.484;2023-05-01T09:45:20;100352.25;;;21.29;34.98
12949;BME280;6539;49.476;8.484;2023-05-01T09:47:51;100355.16;;;21.35;34.67
12949;BME280;6539;49.476;8.484;2023-05-01T09:50:35;100358.81;;;21.41;34.57
12949;BME280;6539;49.476;8.484;2023-05-01T09:53:04;100356.97;;;21.52;33.97
12949;BME280;6539;49.476;8.484;2023-05-01T09:55:34;100348.50;;;21.61;34.24
12949;BME280;6539;49.476;8.484;2023-05-01T09:58:01;100341.88;;;21.73;33.92
12949;BME280;6539;49.476;8.484;2023-05-01T10:00:29;100342.09;;;21.84;33.41
12949;BME280;6539;49.476;8.484;2023-05-01T10:02:55;100351.03;;;21.88;33.02
12949;BME280;6539;49.476;8.484;2023-05-01T10:05:23;100347.47;;;21.88;33.69
12949;BME280;6539;49.476;8.484;2023-05-01T10:10:24;100344.72;;;22.23;32.91
12949;BME280;6539;49.476;8.484;2023-05-01T10:12:52;100347.41;;;22.17;32.50
12949;BME280;6539;49.476;8.484;2023-05-01T10:15:20;100359.22;;;21.92;33.22
12949;BME280;6539;49.476;8.484;2023-05-01T10:17:49;100355.44;;;21.80;33.90
12949;BME280;6539;49.476;8.484;2023-05-01T10:20:23;100354.03;;;21.99;33.63
12949;BME280;6539;49.476;8.484;2023-05-01T10:22:49;100352.03;;;22.20;33.52
12949;BME280;6539;49.476;8.484;2023-05-01T10:25:16;100358.72;;;22.43;33.09
12949;BME280;6539;49.476;8.484;2023-05-01T10:27:44;100364.69;;;22.50;32.54
12949;BME280;6539;49.476;8.484;2023-05-01T10:30:11;100363.38;;;22.31;32.48
12949;BME280;6539;49.476;8.484;2023-05-01T10:32:40;100360.66;;;22.02;32.31
12949;BME280;6539;49.476;8.484;2023-05-01T10:35:23;100354.69;;;21.94;33.35
12949;BME280;6539;49.476;8.484;2023-05-01T10:38:01;100347.25;;;22.06;33.35
12949;BME280;6539;49.476;8.484;2023-05-01T10:43:27;100356.19;;;22.25;33.28
12949;BME280;6539;49.476;8.484;2023-05-01T10:53:40;100341.06;;;23.12;32.18
12949;BME280;6539;49.476;8.484;2023-05-01T10:59:03;100338.69;;;22.64;32.34
12949;BME280;6539;49.476;8.484;2023-05-01T11:01:43;100328.59;;;22.18;33.30
12949;BME280;6539;49.476;8.484;2023-05-01T11:09:37;100329.34;;;21.40;34.35
12949;BME280;6539;49.476;8.484;2023-05-01T11:12:05;100334.13;;;21.24;35.28
12949;BME280;6539;49.476;8.484;2023-05-01T11:17:44;100325.00;;;21.97;33.46
12949;BME280;6539;49.476;8.484;2023-05-01T11:23:04;100326.13;;;22.40;33.15
12949;BME280;6539;49.476;8.484;2023-05-01T11:25:34;100324.13;;;22.26;33.07
12949;BME280;6539;49.476;8.484;2023-05-01T11:28:03;100323.09;;;22.23;32.77
12949;BME280;6539;49.476;8.484;2023-05-01T11:30:38;100320.75;;;22.02;33.37
12949;BME280;6539;49.476;8.484;2023-05-01T11:33:04;100317.09;;;21.81;33.88
12949;BME280;6539;49.476;8.484;2023-05-01T11:35:35;100320.94;;;21.98;33.77
12949;BME280;6539;49.476;8.484;2023-05-01T11:38:05;100324.72;;;21.95;33.52
12949;BME280;6539;49.476;8.484;2023-05-01T11:40:43;100318.53;;;22.06;33.78
12949;BME280;6539;49.476;8.484;2023-05-01T11:43:14;100317.38;;;21.97;34.21
12949;BME280;6539;49.476;8.484;2023-05-01T11:45:42;100304.19;;;21.83;34.26
12949;BME280;6539;49.476;8.484;2023-05-01T11:48:17;100310.34;;;21.73;34.74
12949;BME280;6539;49.476;8.484;2023-05-01T11:50:48;100310.25;;;21.82;35.02
12949;BME280;6539;49.476;8.484;2023-05-01T11:53:14;100308.91;;;21.77;34.96
12949;BME280;6539;49.476;8.484;2023-05-01T11:55:44;100308.84;;;21.86;35.01
12949;BME280;6539;49.476;8.484;2023-05-01T11:58:10;100313.53;;;21.95;35.10
12949;BME280;6539;49.476;8.484;2023-05-01T12:00:41;100309.41;;;21.90;34.47
12949;BME280;6539;49.476;8.484;2023-05-01T12:03:10;100307.00;;;21.69;34.94
12949;BME280;6539;49.476;8.484;2023-05-01T12:05:41;100300.56;;;21.63;35.50
12949;BME280;6539;49.476;8.484;2023-05-01T12:08:21;100310.16;;;21.62;35.69
12949;BME280;6539;49.476;8.484;2023-05-01T12:10:51;100293.19;;;21.80;35.22
12949;BME280;6539;49.476;8.484;2023-05-01T12:13:18;100295.94;;;22.09;34.62
12949;BME280;6539;49.476;8.484;2023-05-01T12:15:48;100291.63;;;22.28;34.46
12949;BME280;6539;49.476;8.484;2023-05-01T12:18:19;100297.59;;;22.36;33.84
12949;BME280;6539;49.476;8.484;2023-05-01T12:20:53;100294.25;;;22.32;34.67
12949;BME280;6539;49.476;8.484;2023-05-01T12:23:39;100297.91;;;22.03;35.12
12949;BME280;6539;49.476;8.484;2023-05-01T12:26:21;100298.69;;;21.89;35.10
12949;BME280;6539;49.476;8.484;2023-05-01T12:29:01;100298.91;;;21.71;34.82
12949;BME280;6539;49.476;8.484;2023-05-01T12:31:29;100295.59;;;21.72;34.73
12949;BME280;6539;49.476;8.484;2023-05-01T12:34:14;100300.59;;;21.97;33.89
12949;BME280;6539;49.476;8.484;2023-05-01T12:36:40;100289.44;;;22.18;33.84
12949;BME280;6539;49.476;8.484;2023-05-01T12:39:09;100290.09;;;22.27;33.52
12949;BME280;6539;49.476;8.484;2023-05-01T12:44:22;100297.16;;;22.43;32.56
12949;BME280;6539;49.476;8.484;2023-05-01T12:47:01;100293.38;;;22.46;32.86
12949;BME280;6539;49.476;8.484;2023-05-01T12:49:29;100291.31;;;22.61;33.09
12949;BME280;6539;49.476;8.484;2023-05-01T12:51:59;100284.19;;;22.60;33.50
12949;BME280;6539;49.476;8.484;2023-05-01T12:54:31;100290.00;;;22.77;32.90
12949;BME280;6539;49.476;8.484;2023-05-01T12:57:14;100291.59;;;22.83;32.80
12949;BME280;6539;49.476;8.484;2023-05-01T12:59:43;100284.28;;;22.91;32.51
12949;BME280;6539;49.476;8.484;2023-05-01T13:02:16;100291.09;;;22.85;32.46
12949;BME280;6539;49.476;8.484;2023-05-01T13:04:43;100287.28;;;22.62;32.36
12949;BME280;6539;49.476;8.484;2023-05-01T13:07:14;100287.44;;;22.58;32.55
12949;BME280;6539;49.476;8.484;2023-05-01T13:09:55;100281.72;;;22.67;32.02
12949;BME280;6539;49.476;8.484;2023-05-01T13:12:23;100285.09;;;22.71;32.10
12949;BME280;6539;49.476;8.484;2023-05-01T13:14:53;100276.75;;;22.57;32.65
12949;BME280;6539;49.476;8.484;2023-05-01T13:17:30;100279.75;;;22.53;32.84
12949;BME280;6539;49.476;8.484;2023-05-01T13:19:58;100287.47;;;22.38;32.98
12949;BME280;6539;49.476;8.484;2023-05-01T13:22:37;100283.38;;;22.39;32.70
12949;BME280;6539;49.476;8.484;2023-05-01T13:25:26;100282.53;;;22.13;33.16
12949;BME280;6539;49.476;8.484;2023-05-01T13:27:57;100281.97;;;22.09;33.35
12949;BME280;6539;49.476;8.484;2023-05-01T13:30:33;100277.94;;;21.95;33.35
12949;BME280;6539;49.476;8.484;2023-05-01T13:32:59;100274.69;;;21.97;33.45
12949;BME280;6539;49.476;8.484;2023-05-01T13:35:26;100277.34;;;22.06;33.62
12949;BME280;6539;49.476;8.484;2023-05-01T13:37:53;100265.69;;;22.08;34.00
12949;BME280;6539;49.476;8.484;2023-05-01T13:40:19;100263.72;;;22.14;34.40
12949;BME280;6539;49.476;8.484;2023-05-01T13:42:50;100267.97;;;22.09;34.38
12949;BME280;6539;49.476;8.484;2023-05-01T13:45:21;100262.09;;;22.07;34.38
12949;BME280;6539;49.476;8.484;2023-05-01T13:47:49;100261.75;;;21.99;34.80
12949;BME280;6539;49.476;8.484;2023-05-01T13:50:16;100264.91;;;22.07;34.83
12949;BME280;6539;49.476;8.484;2023-05-01T13:52:47;100256.69;;;21.83;35.55
12949;BME280;6539;49.476;8.484;2023-05-01T13:55:13;100260.13;;;21.78;35.34
12949;BME280;6539;49.476;8.484;2023-05-01T13:57:42;100259.38;;;21.78;35.92